Latest Weather Observations for Biloela

IDQ60801

Issued at 11:32 pm EST Wednesday 26 April 2017 (issued every 30 minutes, with the page automatically refreshed every 10 minutes)

About weather observations | Map of weather stations | Latest weather observations for QLD | Other Formats
Station Details ID: 039089 Name: THANGOOL AIRPORT Lat: -24.49 Lon: 150.57 Height: 193.1 m
Data from the previous 72 hours. | See also: Recent months at Biloela
Date/Time
EST
Temp
°C
App
Temp
°C
Dew
Point
°C
Rel
Hum
%
Delta-T
°C
Wind Press
QNH
hPa
Press
MSL
hPa
Rain since
9am
mm
Dir  Spd
km/h
Gust
km/h
Spd
kts
Gust
kts
26/11:30pm 20.4 23.4 18.5 89 1.2 CALM 0 0 0 0 1013.9 - 1.6
26/11:00pm 20.6 22.4 18.7 89 1.2 ESE 7 11 4 6 1013.8 - 1.6
26/10:30pm 20.5 22.2 18.6 89 1.2 E 7 9 4 5 1013.7 - 1.6
26/10:00pm 20.8 21.9 18.9 89 1.2 E 11 13 6 7 1013.7 - 1.6
26/09:30pm 20.6 21.6 18.7 89 1.2 E 11 15 6 8 1013.6 - 1.6
26/09:00pm 20.6 22.3 18.4 87 1.4 ESE 7 11 4 6 1013.6 1012.8 1.6
26/08:35pm 20.7 21.6 18.5 87 1.4 S 11 20 6 11 1013.5 - 1.6
26/08:30pm 20.9 22.2 18.5 86 1.5 SSE 9 20 5 11 1013.4 - 1.6
26/08:18pm 20.6 21.2 18.5 88 1.3 SSW 13 22 7 12 1013.5 - 1.2
26/08:00pm 21.1 21.4 17.9 82 2.0 SSW 13 19 7 10 1012.9 - 0.0
26/07:30pm 24.9 25.0 15.5 56 5.7 NNW 9 13 5 7 1011.1 - 0.0
26/07:00pm 24.6 24.4 14.7 54 5.9 N 9 11 5 6 1010.9 - 0.0
26/06:30pm 25.0 25.2 14.8 53 6.1 N 7 11 4 6 1010.5 - 0.0
26/06:00pm 25.5 25.1 14.0 49 6.9 N 9 11 5 6 1010.2 1009.4 0.0
26/05:30pm 27.5 26.5 14.5 45 7.9 N 13 17 7 9 1009.9 - 0.0
26/05:00pm 28.3 27.4 14.9 44 8.2 NW 13 17 7 9 1009.9 - 0.0
26/04:30pm 29.0 27.6 15.5 44 8.4 NNW 17 24 9 13 1010.0 - 0.0
26/04:00pm 29.3 28.2 15.4 42 8.6 NNW 15 22 8 12 1010.3 - 0.0
26/03:30pm 29.3 28.0 15.8 44 8.4 NNW 17 24 9 13 1010.3 - 0.0
26/03:00pm 29.0 28.2 16.2 46 8.0 NNW 15 20 8 11 1010.6 1009.8 0.0
26/02:30pm 28.3 27.2 15.2 44 8.0 WNW 15 20 8 11 1010.9 - 0.0
26/02:00pm 28.2 26.4 14.4 42 8.4 NW 17 22 9 12 1010.9 - 0.0
26/01:30pm 28.3 26.7 14.9 44 8.2 NNW 17 22 9 12 1011.2 - 0.0
26/01:00pm 28.6 27.1 15.2 44 8.2 NW 17 24 9 13 1012.0 - 0.0
26/12:30pm 27.3 25.3 15.0 47 7.5 WNW 19 22 10 12 1012.6 - 0.0
26/12:00pm 27.5 27.1 16.1 49 7.1 N 13 22 7 12 1013.4 1012.6 0.0
26/11:30am 26.9 25.5 15.6 50 6.9 NNW 17 26 9 14 1014.1 - 0.0
26/11:00am 26.1 24.5 16.6 55 5.9 NW 20 26 11 14 1014.6 - 0.0
26/10:30am 24.8 23.8 16.5 60 5.1 NNW 17 22 9 12 1015.2 - 0.0
26/10:00am 24.3 23.6 17.3 65 4.4 NNW 17 24 9 13 1015.6 - 0.0
26/09:30am 22.8 23.3 17.5 72 3.3 NW 11 15 6 8 1015.8 - 0.0
26/09:00am 21.7 23.7 18.7 83 1.9 WNW 6 11 3 6 1015.9 1015.1 0.0
26/08:47am 20.7 22.9 18.3 86 1.5 NNW 4 7 2 4 1016.0 - 0.0
26/08:30am 18.9 21.1 17.4 91 0.9 E 2 6 1 3 1015.9 - 0.0
26/08:00am 17.3 18.0 16.2 93 0.7 E 7 9 4 5 1015.7 - 0.0
26/07:30am 15.3 15.7 14.7 96 0.3 E 6 7 3 4 1015.6 - 0.0
26/07:05am 14.3 14.1 13.7 96 0.3 ESE 7 9 4 5 1015.5 - 0.0
26/07:00am 14.1 14.1 13.5 96 0.3 ESE 6 7 3 4 1015.5 - 0.0
26/06:30am 13.2 12.6 12.3 94 0.5 SE 7 9 4 5 1015.3 - 0.0
26/06:00am 13.9 12.9 13.4 97 0.3 E 11 11 6 6 1015.1 1014.3 0.0
26/05:30am 13.3 12.8 12.5 95 0.4 E 7 9 4 5 1015.1 - 0.0
26/05:10am 13.4 14.2 12.6 95 0.4 CALM 0 0 0 0 1015.1 - 0.0
26/05:00am 13.8 14.8 13.2 96 0.3 CALM 0 0 0 0 1015.0 - 0.0
26/04:51am 13.5 14.3 12.7 95 0.4 CALM 0 0 0 0 1014.9 - 0.0
26/04:30am 14.0 13.7 13.4 96 0.3 ESE 7 9 4 5 1014.8 - 0.0
26/04:00am 14.1 15.2 13.5 96 0.3 CALM 0 0 0 0 1014.8 - 0.0
26/03:30am 13.8 14.6 12.7 93 0.6 CALM 0 0 0 0 1015.1 - 0.0
26/03:00am 14.8 14.9 14.0 95 0.5 E 6 7 3 4 1015.0 1014.2 0.0
26/02:30am 14.4 15.1 13.3 93 0.6 S 2 7 1 4 1015.3 - 0.0
26/02:00am 14.9 16.1 13.8 93 0.6 CALM 0 0 0 0 1015.4 - 0.0
26/01:30am 15.2 16.4 13.9 92 0.7 CALM 0 0 0 0 1015.6 - 0.0
26/01:00am 15.4 16.6 13.8 90 0.9 CALM 0 0 0 0 1015.6 - 0.0
26/12:30am 15.9 17.1 13.9 88 1.1 CALM 0 0 0 0 1015.6 - 0.0
26/12:00am 16.8 18.2 14.3 85 1.4 CALM 0 0 0 0 1015.7 1014.9 0.0
 
Date/Time
EST
Temp
°C
App
Temp
°C
Dew
Point
°C
Rel
Hum
%
Delta-T
°C
Wind Press
QNH
hPa
Press
MSL
hPa
Rain since
9am
mm
Dir  Spd
km/h
Gust
km/h
Spd
kts
Gust
kts
25/11:30pm 17.6 19.2 14.9 84 1.6 CALM 0 0 0 0 1016.0 - 0.0
25/11:00pm 17.9 18.6 14.4 80 2.0 SW 4 9 2 5 1016.3 - 0.0
25/10:30pm 19.0 19.9 14.1 73 2.8 ENE 2 7 1 4 1016.2 - 0.0
25/10:00pm 20.2 21.1 15.0 72 3.1 N 4 9 2 5 1016.2 - 0.0
25/09:30pm 20.7 22.1 15.5 72 3.1 NW 2 7 1 4 1016.3 - 0.0
25/09:00pm 20.5 21.6 15.7 74 2.9 S 4 7 2 4 1016.3 1015.5 0.0
25/08:30pm 21.2 22.4 16.0 72 3.1 WNW 4 9 2 5 1016.6 - 0.0
25/08:00pm 21.2 22.3 15.7 71 3.3 SE 4 7 2 4 1016.6 - 0.0
25/07:30pm 23.1 22.9 15.7 63 4.5 NE 11 19 6 10 1016.0 - 0.0
25/07:00pm 23.6 22.8 15.1 59 5.1 NNE 13 19 7 10 1015.5 - 0.0
25/06:30pm 24.2 23.7 13.7 52 6.2 NNE 9 13 5 7 1015.2 - 0.0
25/06:00pm 23.2 23.7 12.8 52 6.0 WNW 2 9 1 5 1015.0 1014.2 0.0
25/05:30pm 24.4 24.6 12.0 46 7.1 W 2 6 1 3 1014.8 - 0.0
25/05:00pm 27.7 28.8 13.6 42 8.4 CALM 0 0 0 0 1014.8 - 0.0
25/04:30pm 27.9 27.4 10.6 34 9.9 N 4 7 2 4 1014.6 - 0.0
25/04:00pm 28.8 28.9 11.4 34 10.1 NNE 2 9 1 5 1014.5 - 0.0
25/03:30pm 28.1 27.2 11.2 35 9.7 S 7 11 4 6 1014.5 - 0.0
25/03:00pm 27.5 26.5 10.2 34 9.8 N 6 13 3 7 1014.7 1013.9 0.0
25/02:30pm 27.9 27.1 11.0 35 9.7 ENE 6 9 3 5 1014.9 - 0.0
25/02:00pm 27.9 27.2 11.9 37 9.3 ENE 7 13 4 7 1015.2 - 0.0
25/01:30pm 28.0 29.2 13.9 42 8.5 CALM 0 6 0 3 1015.7 - 0.0
25/01:00pm 27.2 27.1 13.2 42 8.3 S 6 11 3 6 1016.2 - 0.0
25/12:30pm 27.5 27.7 14.2 44 8.0 NNE 6 9 3 5 1016.7 - 0.0
25/12:00pm 26.6 26.5 13.3 43 7.9 E 6 11 3 6 1017.3 1016.6 0.0
25/11:30am 25.5 25.2 13.4 47 7.1 SE 7 11 4 6 1017.9 - 0.0
25/11:00am 25.2 25.8 14.3 50 6.5 NNE 4 11 2 6 1018.4 - 0.0
25/10:30am 24.1 24.1 14.2 54 5.9 S 7 11 4 6 1019.0 - 0.0
25/10:00am 24.3 25.4 15.5 58 5.3 NE 4 7 2 4 1019.3 - 0.0
25/09:30am 22.7 22.8 14.0 58 5.1 ESE 6 11 3 6 1019.5 - 0.0
25/09:00am 21.0 21.1 15.5 71 3.3 ESE 9 11 5 6 1019.5 1018.7 0.0
25/08:30am 20.0 20.7 16.0 78 2.4 E 7 11 4 6 1019.6 - 0.0
25/08:00am 18.1 18.8 15.7 86 1.4 E 6 9 3 5 1019.6 - 0.0
25/07:30am 16.4 17.6 14.8 90 0.9 ESE 2 9 1 5 1019.3 - 0.0
25/07:00am 13.8 14.8 13.3 97 0.3 CALM 0 0 0 0 1019.0 - 0.0
25/06:43am 12.7 13.3 11.9 95 0.4 CALM 0 0 0 0 1018.8 - 0.0
25/06:30am 12.9 13.6 12.1 95 0.4 CALM 0 4 0 2 1018.6 - 0.0
25/06:20am 12.5 11.9 11.7 95 0.4 ESE 6 7 3 4 1018.5 - 0.0
25/06:00am 13.1 13.8 12.3 95 0.4 CALM 0 0 0 0 1018.2 1017.4 0.0
25/05:30am 13.0 13.2 11.7 92 0.7 E 2 7 1 4 1018.4 - 0.0
25/05:00am 13.2 12.7 12.1 93 0.6 E 6 7 3 4 1018.1 - 0.0
25/04:30am 13.2 12.2 12.3 94 0.5 ENE 9 9 5 5 1017.9 - 0.0
25/04:00am 13.5 13.0 12.7 95 0.4 E 7 9 4 5 1018.0 - 0.0
25/03:30am 13.6 14.2 13.0 96 0.3 E 2 7 1 4 1017.9 - 0.0
25/03:00am 14.4 15.5 13.6 95 0.4 CALM 0 0 0 0 1018.0 1017.2 0.0
25/02:30am 13.9 13.6 12.6 92 0.7 E 6 7 3 4 1018.1 - 0.0
25/02:00am 14.5 14.3 13.5 94 0.6 E 7 9 4 5 1018.2 - 0.0
25/01:30am 15.0 15.0 13.5 91 0.8 ESE 6 7 3 4 1018.3 - 0.0
25/01:00am 15.1 15.1 13.6 91 0.8 E 6 9 3 5 1018.7 - 0.0
25/12:30am 15.1 16.2 13.5 90 0.9 CALM 0 0 0 0 1019.0 - 0.0
25/12:00am 16.1 17.5 14.3 89 1.0 CALM 0 0 0 0 1019.3 1018.5 0.0
 
Date/Time
EST
Temp
°C
App
Temp
°C
Dew
Point
°C
Rel
Hum
%
Delta-T
°C
Wind Press
QNH
hPa
Press
MSL
hPa
Rain since
9am
mm
Dir  Spd
km/h
Gust
km/h
Spd
kts
Gust
kts
24/11:30pm 15.3 16.2 12.8 85 1.4 CALM 0 0 0 0 1019.5 - 0.0
24/11:00pm 15.9 16.8 13.0 83 1.6 CALM 0 0 0 0 1019.6 - 0.0
24/10:30pm 17.0 18.2 13.7 81 1.9 CALM 0 6 0 3 1019.8 - 0.0
24/10:00pm 17.0 17.0 13.5 80 2.0 SE 6 9 3 5 1019.7 - 0.0
24/09:30pm 17.5 18.1 13.2 76 2.4 SE 2 6 1 3 1019.9 - 0.0
24/09:00pm 17.7 19.0 14.2 80 2.0 CALM 0 7 0 4 1019.5 1018.7 0.0
24/08:30pm 19.0 19.2 14.1 73 2.8 E 6 7 3 4 1019.3 - 0.0
24/08:00pm 19.8 19.6 13.7 68 3.5 SE 7 11 4 6 1019.2 - 0.0
24/07:30pm 20.1 19.6 13.8 67 3.7 E 9 11 5 6 1018.9 - 0.0
24/07:00pm 20.0 19.3 13.2 65 3.9 ENE 9 9 5 5 1018.8 - 0.0
24/06:30pm 21.6 20.9 13.2 59 4.9 E 9 9 5 5 1018.4 - 0.0
24/06:00pm 23.2 22.5 13.1 53 5.9 E 9 13 5 7 1018.1 1017.3 0.0
24/05:30pm 24.8 23.9 12.7 47 7.0 ESE 9 13 5 7 1017.9 - 0.0
24/05:00pm 25.3 24.5 12.9 46 7.3 ESE 9 13 5 7 1017.4 - 0.0
24/04:30pm 26.2 24.5 12.3 42 8.1 SE 13 17 7 9 1017.2 - 0.0
24/04:00pm 25.8 25.7 14.0 48 7.0 SE 7 11 4 6 1017.1 - 0.0
24/03:30pm 26.7 25.1 12.7 42 8.2 ESE 13 20 7 11 1016.9 - 0.0
24/03:00pm 27.9 27.6 12.7 39 9.0 SE 6 13 3 7 1016.9 1016.2 0.0
24/02:30pm 25.8 24.8 12.3 43 7.8 E 9 13 5 7 1017.2 - 0.0
24/02:00pm 27.2 26.9 13.2 42 8.3 SSE 7 15 4 8 1017.1 - 0.0
24/01:30pm 26.4 25.3 13.2 44 7.8 SSE 11 17 6 9 1017.4 - 0.0
24/01:00pm 26.8 25.8 12.4 40 8.4 SE 9 17 5 9 1018.1 - 0.0
24/12:30pm 26.7 25.4 13.8 45 7.7 ESE 13 20 7 11 1018.8 - 0.0
24/12:00pm 25.9 25.0 13.7 47 7.2 ESE 11 20 6 11 1019.2 1018.4 0.0
24/11:30am 25.7 24.3 13.5 46 7.2 ESE 13 19 7 10 1019.5 - 0.0
24/11:00am 25.2 24.1 14.3 50 6.5 ESE 13 24 7 13 1020.1 - 0.0
24/10:30am 25.0 24.5 15.9 57 5.6 SE 13 19 7 10 1020.6 - 0.0
24/10:00am 23.9 22.0 14.3 55 5.7 ESE 17 26 9 14 1020.9 - 0.0
24/09:30am 23.5 22.4 16.3 64 4.4 E 17 22 9 12 1021.1 - 0.0
24/09:00am 22.2 21.3 15.8 67 3.9 ESE 15 24 8 13 1021.0 1020.3 0.0
24/08:30am 20.9 21.5 15.7 72 3.1 SE 7 13 4 7 1021.0 - 0.0
24/08:00am 19.0 19.4 15.3 79 2.2 SE 7 11 4 6 1020.8 - 0.0
24/07:30am 17.5 18.3 14.8 84 1.6 ESE 4 9 2 5 1020.6 - 0.0
24/07:00am 15.7 16.6 15.2 97 0.3 SE 4 7 2 4 1020.4 - 0.0
24/06:30am 14.1 15.1 13.1 94 0.6 CALM 0 0 0 0 1020.2 - 0.0
24/06:00am 14.6 15.8 13.8 95 0.5 CALM 0 0 0 0 1020.0 1019.2 0.0
24/05:30am 14.4 14.3 13.3 93 0.6 E 6 6 3 3 1019.7 - 0.0
24/05:00am 15.3 15.4 14.5 95 0.5 SSE 7 9 4 5 1019.5 - 0.0
24/04:30am 14.7 14.7 13.7 94 0.6 ENE 6 9 3 5 1019.2 - 0.0
24/04:00am 14.7 15.8 13.6 93 0.6 CALM 0 0 0 0 1019.3 - 0.0
24/03:30am 14.8 15.6 13.8 94 0.6 E 2 6 1 3 1019.3 - 0.0
24/03:00am 14.8 14.7 13.8 94 0.6 E 7 9 4 5 1019.4 1018.6 0.0
24/02:30am 15.6 15.9 15.0 96 0.3 E 7 9 4 5 1019.6 - 0.0
24/02:00am 14.7 15.8 13.4 92 0.7 CALM 0 0 0 0 1019.8 - 0.0
24/01:30am 15.0 16.2 13.7 92 0.7 CALM 0 0 0 0 1020.0 - 0.0
24/01:00am 15.2 15.2 13.6 90 0.9 NE 6 9 3 5 1020.2 - 0.0
24/12:30am 16.1 16.5 14.8 92 0.8 ENE 6 7 3 4 1020.3 - 0.0
24/12:00am 16.8 18.4 15.0 89 1.0 CALM 0 0 0 0 1020.7 1019.9 0.0

Other Formats:

Comma delimited format used in spreadsheet applications
http://www.bom.gov.au/fwo/IDQ60801/IDQ60801.94376.axf

JavaScript Object Notation format (JSON) in row-major order
http://www.bom.gov.au/fwo/IDQ60801/IDQ60801.94376.json